sensor_id;sensor_type;location;lat;lon;timestamp;P1;durP1;ratioP1;P2;durP2;ratioP2
11568;SDS011;5840;46.894;15.542;2023-10-09T00:02:05;2.63;;;2.43;;
11568;SDS011;5840;46.894;15.542;2023-10-09T00:04:32;2.30;;;2.10;;
11568;SDS011;5840;46.894;15.542;2023-10-09T00:07:03;2.33;;;2.10;;
11568;SDS011;5840;46.894;15.542;2023-10-09T00:09:33;2.20;;;2.00;;
11568;SDS011;5840;46.894;15.542;2023-10-09T00:12:11;2.20;;;2.10;;
11568;SDS011;5840;46.894;15.542;2023-10-09T00:14:41;2.23;;;2.03;;
11568;SDS011;5840;46.894;15.542;2023-10-09T00:17:13;2.93;;;2.10;;
11568;SDS011;5840;46.894;15.542;2023-10-09T00:19:43;2.50;;;2.30;;
11568;SDS011;5840;46.894;15.542;2023-10-09T00:22:14;2.30;;;2.20;;
11568;SDS011;5840;46.894;15.542;2023-10-09T00:24:55;2.40;;;2.20;;
11568;SDS011;5840;46.894;15.542;2023-10-09T00:27:46;2.47;;;2.20;;
11568;SDS011;5840;46.894;15.542;2023-10-09T00:30:14;2.00;;;1.90;;
11568;SDS011;5840;46.894;15.542;2023-10-09T00:32:44;2.23;;;2.03;;
11568;SDS011;5840;46.894;15.542;2023-10-09T00:35:24;2.27;;;2.07;;
11568;SDS011;5840;46.894;15.542;2023-10-09T00:38:13;2.43;;;2.20;;
11568;SDS011;5840;46.894;15.542;2023-10-09T00:40:49;2.00;;;1.90;;
11568;SDS011;5840;46.894;15.542;2023-10-09T00:43:28;3.07;;;2.30;;
11568;SDS011;5840;46.894;15.542;2023-10-09T00:45:56;3.63;;;2.20;;
11568;SDS011;5840;46.894;15.542;2023-10-09T00:48:27;2.10;;;1.93;;
11568;SDS011;5840;46.894;15.542;2023-10-09T00:51:02;2.17;;;2.07;;
11568;SDS011;5840;46.894;15.542;2023-10-09T00:53:43;1.63;;;1.63;;
11568;SDS011;5840;46.894;15.542;2023-10-09T00:56:14;1.97;;;1.87;;
11568;SDS011;5840;46.894;15.542;2023-10-09T00:58:54;2.43;;;2.23;;
11568;SDS011;5840;46.894;15.542;2023-10-09T01:01:25;2.10;;;2.00;;
11568;SDS011;5840;46.894;15.542;2023-10-09T01:04:00;2.90;;;2.60;;
11568;SDS011;5840;46.894;15.542;2023-10-09T01:06:37;2.27;;;2.10;;
11568;SDS011;5840;46.894;15.542;2023-10-09T01:09:10;2.30;;;2.10;;
11568;SDS011;5840;46.894;15.542;2023-10-09T01:11:39;2.40;;;2.20;;
11568;SDS011;5840;46.894;15.542;2023-10-09T01:14:28;2.30;;;2.10;;
11568;SDS011;5840;46.894;15.542;2023-10-09T01:16:56;3.20;;;2.30;;
11568;SDS011;5840;46.894;15.542;2023-10-09T01:19:25;2.40;;;2.20;;
11568;SDS011;5840;46.894;15.542;2023-10-09T01:21:53;2.87;;;1.90;;
11568;SDS011;5840;46.894;15.542;2023-10-09T01:24:25;2.30;;;2.10;;
11568;SDS011;5840;46.894;15.542;2023-10-09T01:27:00;2.30;;;2.10;;
11568;SDS011;5840;46.894;15.542;2023-10-09T01:29:30;2.17;;;2.07;;
11568;SDS011;5840;46.894;15.542;2023-10-09T01:31:57;2.73;;;2.30;;
11568;SDS011;5840;46.894;15.542;2023-10-09T01:34:27;3.47;;;2.40;;
11568;SDS011;5840;46.894;15.542;2023-10-09T01:37:04;2.50;;;2.30;;
11568;SDS011;5840;46.894;15.542;2023-10-09T01:39:38;2.47;;;2.20;;
11568;SDS011;5840;46.894;15.542;2023-10-09T01:42:07;3.00;;;2.20;;
11568;SDS011;5840;46.894;15.542;2023-10-09T01:44:35;2.87;;;2.53;;
11568;SDS011;5840;46.894;15.542;2023-10-09T01:47:08;2.60;;;2.20;;
11568;SDS011;5840;46.894;15.542;2023-10-09T01:49:39;3.03;;;2.40;;
11568;SDS011;5840;46.894;15.542;2023-10-09T01:52:08;2.13;;;2.03;;
11568;SDS011;5840;46.894;15.542;2023-10-09T01:54:42;3.97;;;2.10;;
11568;SDS011;5840;46.894;15.542;2023-10-09T01:57:12;3.03;;;2.47;;
11568;SDS011;5840;46.894;15.542;2023-10-09T01:59:40;2.93;;;2.73;;
11568;SDS011;5840;46.894;15.542;2023-10-09T02:02:11;2.57;;;2.33;;
11568;SDS011;5840;46.894;15.542;2023-10-09T02:04:50;3.00;;;2.80;;
11568;SDS011;5840;46.894;15.542;2023-10-09T02:07:19;2.83;;;2.63;;
11568;SDS011;5840;46.894;15.542;2023-10-09T02:09:55;4.03;;;2.60;;
11568;SDS011;5840;46.894;15.542;2023-10-09T02:12:22;2.87;;;2.57;;
11568;SDS011;5840;46.894;15.542;2023-10-09T02:14:50;2.80;;;2.60;;
11568;SDS011;5840;46.894;15.542;2023-10-09T02:17:21;3.03;;;2.53;;
11568;SDS011;5840;46.894;15.542;2023-10-09T02:19:53;2.93;;;2.70;;
11568;SDS011;5840;46.894;15.542;2023-10-09T02:22:21;2.80;;;2.60;;
11568;SDS011;5840;46.894;15.542;2023-10-09T02:24:51;2.67;;;2.47;;
11568;SDS011;5840;46.894;15.542;2023-10-09T02:27:25;2.60;;;2.40;;
11568;SDS011;5840;46.894;15.542;2023-10-09T02:30:09;3.00;;;2.80;;
11568;SDS011;5840;46.894;15.542;2023-10-09T02:32:51;2.77;;;2.57;;
11568;SDS011;5840;46.894;15.542;2023-10-09T02:35:24;3.17;;;2.70;;
11568;SDS011;5840;46.894;15.542;2023-10-09T02:38:04;3.07;;;2.60;;
11568;SDS011;5840;46.894;15.542;2023-10-09T02:40:39;2.60;;;2.40;;
11568;SDS011;5840;46.894;15.542;2023-10-09T02:43:27;2.57;;;2.37;;
11568;SDS011;5840;46.894;15.542;2023-10-09T02:45:59;2.83;;;2.63;;
11568;SDS011;5840;46.894;15.542;2023-10-09T02:48:38;2.67;;;2.47;;
11568;SDS011;5840;46.894;15.542;2023-10-09T02:51:07;3.37;;;2.63;;
11568;SDS011;5840;46.894;15.542;2023-10-09T02:53:46;3.33;;;2.50;;
11568;SDS011;5840;46.894;15.542;2023-10-09T02:56:15;2.70;;;2.50;;
11568;SDS011;5840;46.894;15.542;2023-10-09T02:58:50;3.47;;;2.80;;
11568;SDS011;5840;46.894;15.542;2023-10-09T03:01:17;2.90;;;2.70;;
11568;SDS011;5840;46.894;15.542;2023-10-09T03:03:44;4.40;;;3.10;;
11568;SDS011;5840;46.894;15.542;2023-10-09T03:06:12;2.83;;;2.63;;
11568;SDS011;5840;46.894;15.542;2023-10-09T03:08:50;3.10;;;2.80;;
11568;SDS011;5840;46.894;15.542;2023-10-09T03:11:19;2.90;;;2.70;;
11568;SDS011;5840;46.894;15.542;2023-10-09T03:13:46;3.13;;;2.50;;
11568;SDS011;5840;46.894;15.542;2023-10-09T03:16:14;3.17;;;2.87;;
11568;SDS011;5840;46.894;15.542;2023-10-09T03:18:44;2.60;;;2.40;;
11568;SDS011;5840;46.894;15.542;2023-10-09T03:21:11;2.63;;;2.43;;
11568;SDS011;5840;46.894;15.542;2023-10-09T03:23:39;3.87;;;2.90;;
11568;SDS011;5840;46.894;15.542;2023-10-09T03:26:06;3.70;;;2.87;;
11568;SDS011;5840;46.894;15.542;2023-10-09T03:28:33;3.77;;;3.00;;
11568;SDS011;5840;46.894;15.542;2023-10-09T03:31:01;3.30;;;3.00;;
11568;SDS011;5840;46.894;15.542;2023-10-09T03:33:29;2.67;;;2.43;;
11568;SDS011;5840;46.894;15.542;2023-10-09T03:35:58;4.20;;;2.83;;
11568;SDS011;5840;46.894;15.542;2023-10-09T03:38:25;3.43;;;2.80;;
11568;SDS011;5840;46.894;15.542;2023-10-09T03:40:54;2.80;;;2.60;;
11568;SDS011;5840;46.894;15.542;2023-10-09T03:43:21;3.07;;;2.77;;
11568;SDS011;5840;46.894;15.542;2023-10-09T03:45:48;2.70;;;2.50;;
11568;SDS011;5840;46.894;15.542;2023-10-09T03:48:18;2.97;;;2.77;;
11568;SDS011;5840;46.894;15.542;2023-10-09T03:50:52;3.90;;;3.20;;
11568;SDS011;5840;46.894;15.542;2023-10-09T03:53:33;3.13;;;2.57;;
11568;SDS011;5840;46.894;15.542;2023-10-09T03:56:02;2.83;;;2.63;;
11568;SDS011;5840;46.894;15.542;2023-10-09T03:58:36;3.60;;;2.87;;
11568;SDS011;5840;46.894;15.542;2023-10-09T04:01:06;3.80;;;2.77;;
11568;SDS011;5840;46.894;15.542;2023-10-09T04:03:37;2.80;;;2.60;;
11568;SDS011;5840;46.894;15.542;2023-10-09T04:06:05;3.27;;;2.70;;
11568;SDS011;5840;46.894;15.542;2023-10-09T04:08:36;3.10;;;2.80;;
11568;SDS011;5840;46.894;15.542;2023-10-09T04:11:05;3.00;;;2.80;;
11568;SDS011;5840;46.894;15.542;2023-10-09T04:13:41;2.70;;;2.50;;
11568;SDS011;5840;46.894;15.542;2023-10-09T04:16:11;2.97;;;2.70;;
11568;SDS011;5840;46.894;15.542;2023-10-09T04:18:59;3.20;;;2.90;;
11568;SDS011;5840;46.894;15.542;2023-10-09T04:21:32;3.20;;;2.90;;
11568;SDS011;5840;46.894;15.542;2023-10-09T04:24:02;3.40;;;3.10;;
11568;SDS011;5840;46.894;15.542;2023-10-09T04:26:47;3.27;;;2.97;;
11568;SDS011;5840;46.894;15.542;2023-10-09T04:29:21;3.10;;;2.80;;
11568;SDS011;5840;46.894;15.542;2023-10-09T04:31:52;3.57;;;3.23;;
11568;SDS011;5840;46.894;15.542;2023-10-09T04:34:21;4.43;;;3.00;;
11568;SDS011;5840;46.894;15.542;2023-10-09T04:36:50;3.57;;;2.90;;
11568;SDS011;5840;46.894;15.542;2023-10-09T04:39:26;3.70;;;2.90;;
11568;SDS011;5840;46.894;15.542;2023-10-09T04:42:11;2.87;;;2.63;;
11568;SDS011;5840;46.894;15.542;2023-10-09T04:44:45;3.53;;;3.23;;
11568;SDS011;5840;46.894;15.542;2023-10-09T04:47:26;3.50;;;3.27;;
11568;SDS011;5840;46.894;15.542;2023-10-09T04:50:02;3.73;;;3.40;;
11568;SDS011;5840;46.894;15.542;2023-10-09T04:52:38;3.33;;;3.00;;
11568;SDS011;5840;46.894;15.542;2023-10-09T04:55:19;3.27;;;3.00;;
11568;SDS011;5840;46.894;15.542;2023-10-09T04:57:50;3.10;;;2.80;;
11568;SDS011;5840;46.894;15.542;2023-10-09T05:00:28;3.73;;;3.50;;
11568;SDS011;5840;46.894;15.542;2023-10-09T05:03:08;3.57;;;3.27;;
11568;SDS011;5840;46.894;15.542;2023-10-09T05:05:37;3.13;;;2.80;;
11568;SDS011;5840;46.894;15.542;2023-10-09T05:08:25;3.57;;;3.27;;
11568;SDS011;5840;46.894;15.542;2023-10-09T05:10:55;3.57;;;2.93;;
11568;SDS011;5840;46.894;15.542;2023-10-09T05:13:31;3.50;;;2.80;;
11568;SDS011;5840;46.894;15.542;2023-10-09T05:16:09;3.13;;;2.93;;
11568;SDS011;5840;46.894;15.542;2023-10-09T05:18:40;3.43;;;3.10;;
11568;SDS011;5840;46.894;15.542;2023-10-09T05:21:10;3.13;;;2.80;;
11568;SDS011;5840;46.894;15.542;2023-10-09T05:23:52;2.83;;;2.63;;
11568;SDS011;5840;46.894;15.542;2023-10-09T05:26:33;3.20;;;2.97;;
11568;SDS011;5840;46.894;15.542;2023-10-09T05:29:16;3.17;;;2.87;;
11568;SDS011;5840;46.894;15.542;2023-10-09T05:31:59;3.17;;;2.87;;
11568;SDS011;5840;46.894;15.542;2023-10-09T05:34:31;3.33;;;2.97;;
11568;SDS011;5840;46.894;15.542;2023-10-09T05:37:00;3.90;;;3.40;;
11568;SDS011;5840;46.894;15.542;2023-10-09T05:39:44;3.50;;;3.17;;
11568;SDS011;5840;46.894;15.542;2023-10-09T05:42:32;2.97;;;2.77;;
11568;SDS011;5840;46.894;15.542;2023-10-09T05:45:08;3.17;;;2.93;;
11568;SDS011;5840;46.894;15.542;2023-10-09T05:47:54;3.53;;;3.23;;
11568;SDS011;5840;46.894;15.542;2023-10-09T05:50:23;4.07;;;3.07;;
11568;SDS011;5840;46.894;15.542;2023-10-09T05:53:10;3.10;;;2.90;;
11568;SDS011;5840;46.894;15.542;2023-10-09T05:55:58;2.97;;;2.77;;
11568;SDS011;5840;46.894;15.542;2023-10-09T05:58:42;3.00;;;2.47;;
11568;SDS011;5840;46.894;15.542;2023-10-09T06:01:23;2.70;;;2.50;;
11568;SDS011;5840;46.894;15.542;2023-10-09T06:04:08;2.90;;;2.70;;
11568;SDS011;5840;46.894;15.542;2023-10-09T06:06:40;3.53;;;2.90;;
11568;SDS011;5840;46.894;15.542;2023-10-09T06:09:11;3.57;;;3.30;;
11568;SDS011;5840;46.894;15.542;2023-10-09T06:11:58;3.40;;;3.10;;
11568;SDS011;5840;46.894;15.542;2023-10-09T06:14:42;5.27;;;3.87;;
11568;SDS011;5840;46.894;15.542;2023-10-09T06:17:22;4.07;;;3.73;;
11568;SDS011;5840;46.894;15.542;2023-10-09T06:19:49;4.10;;;3.70;;
11568;SDS011;5840;46.894;15.542;2023-10-09T06:22:23;3.73;;;3.43;;
11568;SDS011;5840;46.894;15.542;2023-10-09T06:25:11;2.83;;;2.63;;
11568;SDS011;5840;46.894;15.542;2023-10-09T06:27:45;4.40;;;3.00;;
11568;SDS011;5840;46.894;15.542;2023-10-09T06:30:24;3.43;;;3.13;;
11568;SDS011;5840;46.894;15.542;2023-10-09T06:32:51;3.83;;;3.43;;
11568;SDS011;5840;46.894;15.542;2023-10-09T06:35:33;3.00;;;2.73;;
11568;SDS011;5840;46.894;15.542;2023-10-09T06:38:00;3.17;;;2.93;;
11568;SDS011;5840;46.894;15.542;2023-10-09T06:40:47;2.87;;;2.60;;
11568;SDS011;5840;46.894;15.542;2023-10-09T06:43:33;3.20;;;2.90;;
11568;SDS011;5840;46.894;15.542;2023-10-09T06:46:14;3.87;;;3.17;;
11568;SDS011;5840;46.894;15.542;2023-10-09T06:48:59;3.97;;;3.57;;
11568;SDS011;5840;46.894;15.542;2023-10-09T06:51:44;3.97;;;3.60;;
11568;SDS011;5840;46.894;15.542;2023-10-09T06:54:12;4.40;;;3.70;;
11568;SDS011;5840;46.894;15.542;2023-10-09T06:56:40;4.10;;;3.50;;
11568;SDS011;5840;46.894;15.542;2023-10-09T06:59:26;5.07;;;4.23;;
11568;SDS011;5840;46.894;15.542;2023-10-09T07:02:07;4.73;;;4.23;;
11568;SDS011;5840;46.894;15.542;2023-10-09T07:04:51;4.43;;;4.03;;
11568;SDS011;5840;46.894;15.542;2023-10-09T07:07:21;4.20;;;3.67;;
11568;SDS011;5840;46.894;15.542;2023-10-09T07:09:49;4.43;;;4.00;;
11568;SDS011;5840;46.894;15.542;2023-10-09T07:12:35;5.50;;;3.97;;
11568;SDS011;5840;46.894;15.542;2023-10-09T07:15:09;4.33;;;3.93;;
11568;SDS011;5840;46.894;15.542;2023-10-09T07:17:54;4.10;;;3.70;;
11568;SDS011;5840;46.894;15.542;2023-10-09T07:20:33;5.07;;;3.93;;
11568;SDS011;5840;46.894;15.542;2023-10-09T07:23:10;7.47;;;3.93;;
11568;SDS011;5840;46.894;15.542;2023-10-09T07:25:40;4.20;;;3.80;;
11568;SDS011;5840;46.894;15.542;2023-10-09T07:28:20;4.87;;;3.70;;
11568;SDS011;5840;46.894;15.542;2023-10-09T07:31:09;3.77;;;3.40;;
11568;SDS011;5840;46.894;15.542;2023-10-09T07:33:49;4.43;;;3.70;;
11568;SDS011;5840;46.894;15.542;2023-10-09T07:36:22;4.40;;;4.00;;
11568;SDS011;5840;46.894;15.542;2023-10-09T07:39:02;3.60;;;3.30;;
11568;SDS011;5840;46.894;15.542;2023-10-09T07:41:38;3.80;;;3.30;;
11568;SDS011;5840;46.894;15.542;2023-10-09T07:44:10;4.13;;;3.33;;
11568;SDS011;5840;46.894;15.542;2023-10-09T07:47:01;4.47;;;3.63;;
11568;SDS011;5840;46.894;15.542;2023-10-09T07:49:47;4.43;;;3.20;;
11568;SDS011;5840;46.894;15.542;2023-10-09T07:52:17;4.07;;;3.20;;
11568;SDS011;5840;46.894;15.542;2023-10-09T07:54:47;3.33;;;2.80;;
11568;SDS011;5840;46.894;15.542;2023-10-09T07:57:19;3.03;;;2.70;;
11568;SDS011;5840;46.894;15.542;2023-10-09T07:59:52;3.33;;;2.90;;
11568;SDS011;5840;46.894;15.542;2023-10-09T08:02:30;3.33;;;3.10;;
11568;SDS011;5840;46.894;15.542;2023-10-09T08:05:02;3.37;;;3.10;;
11568;SDS011;5840;46.894;15.542;2023-10-09T08:07:43;3.93;;;3.50;;
11568;SDS011;5840;46.894;15.542;2023-10-09T08:10:20;3.13;;;2.93;;
11568;SDS011;5840;46.894;15.542;2023-10-09T08:13:04;6.10;;;3.50;;
11568;SDS011;5840;46.894;15.542;2023-10-09T08:15:58;3.27;;;2.97;;
11568;SDS011;5840;46.894;15.542;2023-10-09T08:18:28;3.00;;;2.80;;
11568;SDS011;5840;46.894;15.542;2023-10-09T08:20:56;3.27;;;2.97;;
11568;SDS011;5840;46.894;15.542;2023-10-09T08:23:41;3.47;;;3.10;;
11568;SDS011;5840;46.894;15.542;2023-10-09T08:26:17;3.27;;;2.87;;
11568;SDS011;5840;46.894;15.542;2023-10-09T08:28:54;3.10;;;2.90;;
11568;SDS011;5840;46.894;15.542;2023-10-09T08:31:42;3.40;;;3.10;;
11568;SDS011;5840;46.894;15.542;2023-10-09T08:34:13;3.30;;;3.00;;
11568;SDS011;5840;46.894;15.542;2023-10-09T08:36:49;3.10;;;2.90;;
11568;SDS011;5840;46.894;15.542;2023-10-09T08:39:19;2.93;;;2.73;;
11568;SDS011;5840;46.894;15.542;2023-10-09T08:41:52;4.90;;;3.43;;
11568;SDS011;5840;46.894;15.542;2023-10-09T08:44:23;3.00;;;2.80;;
11568;SDS011;5840;46.894;15.542;2023-10-09T08:46:55;3.07;;;2.83;;
11568;SDS011;5840;46.894;15.542;2023-10-09T08:49:22;2.97;;;2.60;;
11568;SDS011;5840;46.894;15.542;2023-10-09T08:51:50;4.10;;;3.00;;
11568;SDS011;5840;46.894;15.542;2023-10-09T08:54:18;2.97;;;2.77;;
11568;SDS011;5840;46.894;15.542;2023-10-09T08:56:45;2.90;;;2.60;;
11568;SDS011;5840;46.894;15.542;2023-10-09T08:59:15;3.67;;;3.00;;
11568;SDS011;5840;46.894;15.542;2023-10-09T09:01:44;2.90;;;2.70;;
11568;SDS011;5840;46.894;15.542;2023-10-09T09:07:05;3.30;;;3.00;;
11568;SDS011;5840;46.894;15.542;2023-10-09T09:09:32;3.70;;;2.73;;
11568;SDS011;5840;46.894;15.542;2023-10-09T09:11:59;3.40;;;3.10;;
11568;SDS011;5840;46.894;15.542;2023-10-09T09:14:35;2.73;;;2.50;;
11568;SDS011;5840;46.894;15.542;2023-10-09T09:17:04;3.27;;;2.97;;
11568;SDS011;5840;46.894;15.542;2023-10-09T09:19:37;2.90;;;2.70;;
11568;SDS011;5840;46.894;15.542;2023-10-09T09:22:04;2.80;;;2.60;;
11568;SDS011;5840;46.894;15.542;2023-10-09T09:24:38;2.87;;;2.67;;
11568;SDS011;5840;46.894;15.542;2023-10-09T09:27:10;2.80;;;2.60;;
11568;SDS011;5840;46.894;15.542;2023-10-09T09:29:45;3.00;;;2.70;;
11568;SDS011;5840;46.894;15.542;2023-10-09T09:32:26;2.83;;;2.53;;
11568;SDS011;5840;46.894;15.542;2023-10-09T09:35:02;3.60;;;2.90;;
11568;SDS011;5840;46.894;15.542;2023-10-09T09:37:31;4.67;;;3.23;;
11568;SDS011;5840;46.894;15.542;2023-10-09T09:40:15;2.90;;;2.63;;
11568;SDS011;5840;46.894;15.542;2023-10-09T09:42:54;3.13;;;2.77;;
11568;SDS011;5840;46.894;15.542;2023-10-09T09:45:29;3.23;;;2.70;;
11568;SDS011;5840;46.894;15.542;2023-10-09T09:47:58;2.80;;;2.60;;
11568;SDS011;5840;46.894;15.542;2023-10-09T09:50:32;3.23;;;2.80;;
11568;SDS011;5840;46.894;15.542;2023-10-09T09:53:02;3.17;;;2.83;;
11568;SDS011;5840;46.894;15.542;2023-10-09T09:55:33;3.13;;;2.83;;
11568;SDS011;5840;46.894;15.542;2023-10-09T09:58:01;2.90;;;2.70;;
11568;SDS011;5840;46.894;15.542;2023-10-09T10:00:31;3.17;;;2.87;;
11568;SDS011;5840;46.894;15.542;2023-10-09T10:03:09;3.07;;;2.60;;
11568;SDS011;5840;46.894;15.542;2023-10-09T10:05:40;2.93;;;2.73;;
11568;SDS011;5840;46.894;15.542;2023-10-09T10:08:11;2.63;;;2.43;;
11568;SDS011;5840;46.894;15.542;2023-10-09T10:10:45;3.70;;;3.33;;
11568;SDS011;5840;46.894;15.542;2023-10-09T10:13:17;3.57;;;2.90;;
11568;SDS011;5840;46.894;15.542;2023-10-09T10:16:06;3.80;;;3.23;;
11568;SDS011;5840;46.894;15.542;2023-10-09T10:18:51;5.87;;;3.13;;
11568;SDS011;5840;46.894;15.542;2023-10-09T10:21:26;5.53;;;2.90;;
11568;SDS011;5840;46.894;15.542;2023-10-09T10:27:19;3.07;;;2.63;;
11568;SDS011;5840;46.894;15.542;2023-10-09T10:33:02;3.67;;;2.90;;
11568;SDS011;5840;46.894;15.542;2023-10-09T10:35:41;4.27;;;3.00;;
11568;SDS011;5840;46.894;15.542;2023-10-09T10:38:31;3.33;;;2.97;;
11568;SDS011;5840;46.894;15.542;2023-10-09T10:41:14;3.47;;;3.17;;
11568;SDS011;5840;46.894;15.542;2023-10-09T10:43:48;3.13;;;2.83;;
11568;SDS011;5840;46.894;15.542;2023-10-09T10:46:26;3.63;;;2.80;;
11568;SDS011;5840;46.894;15.542;2023-10-09T10:49:06;3.23;;;2.93;;
11568;SDS011;5840;46.894;15.542;2023-10-09T10:51:45;5.27;;;2.83;;
11568;SDS011;5840;46.894;15.542;2023-10-09T10:54:22;3.07;;;2.77;;
11568;SDS011;5840;46.894;15.542;2023-10-09T10:57:14;3.27;;;2.97;;
11568;SDS011;5840;46.894;15.542;2023-10-09T10:59:58;4.80;;;3.00;;
11568;SDS011;5840;46.894;15.542;2023-10-09T11:02:59;3.77;;;2.93;;
11568;SDS011;5840;46.894;15.542;2023-10-09T11:05:38;5.40;;;3.17;;
11568;SDS011;5840;46.894;15.542;2023-10-09T11:08:08;3.20;;;2.90;;
11568;SDS011;5840;46.894;15.542;2023-10-09T11:10:37;3.30;;;2.80;;
11568;SDS011;5840;46.894;15.542;2023-10-09T11:13:20;4.63;;;2.83;;
11568;SDS011;5840;46.894;15.542;2023-10-09T11:15:58;3.80;;;2.83;;
11568;SDS011;5840;46.894;15.542;2023-10-09T11:18:39;4.70;;;3.07;;
11568;SDS011;5840;46.894;15.542;2023-10-09T11:21:12;3.10;;;2.70;;
11568;SDS011;5840;46.894;15.542;2023-10-09T11:23:59;3.87;;;2.80;;
11568;SDS011;5840;46.894;15.542;2023-10-09T11:26:50;3.93;;;2.70;;
11568;SDS011;5840;46.894;15.542;2023-10-09T11:29:20;3.37;;;3.07;;
11568;SDS011;5840;46.894;15.542;2023-10-09T11:32:18;4.60;;;2.90;;
11568;SDS011;5840;46.894;15.542;2023-10-09T11:34:47;3.27;;;2.93;;
11568;SDS011;5840;46.894;15.542;2023-10-09T11:37:18;3.73;;;2.60;;
11568;SDS011;5840;46.894;15.542;2023-10-09T11:40:03;3.13;;;2.57;;
11568;SDS011;5840;46.894;15.542;2023-10-09T11:42:49;4.53;;;2.90;;
11568;SDS011;5840;46.894;15.542;2023-10-09T11:45:22;2.97;;;2.73;;
11568;SDS011;5840;46.894;15.542;2023-10-09T11:47:53;3.50;;;2.70;;
11568;SDS011;5840;46.894;15.542;2023-10-09T11:50:38;3.97;;;2.80;;
11568;SDS011;5840;46.894;15.542;2023-10-09T11:53:09;3.50;;;3.20;;
11568;SDS011;5840;46.894;15.542;2023-10-09T11:55:45;4.27;;;3.00;;
11568;SDS011;5840;46.894;15.542;2023-10-09T11:58:15;3.00;;;2.70;;
11568;SDS011;5840;46.894;15.542;2023-10-09T12:00:48;3.90;;;2.97;;
11568;SDS011;5840;46.894;15.542;2023-10-09T12:03:22;4.40;;;2.90;;
11568;SDS011;5840;46.894;15.542;2023-10-09T12:05:53;3.57;;;3.27;;
11568;SDS011;5840;46.894;15.542;2023-10-09T12:08:21;4.00;;;3.20;;
11568;SDS011;5840;46.894;15.542;2023-10-09T12:10:51;3.50;;;3.20;;
11568;SDS011;5840;46.894;15.542;2023-10-09T12:13:22;3.40;;;3.10;;
11568;SDS011;5840;46.894;15.542;2023-10-09T12:15:49;5.10;;;3.20;;
11568;SDS011;5840;46.894;15.542;2023-10-09T12:18:18;3.50;;;3.10;;
11568;SDS011;5840;46.894;15.542;2023-10-09T12:20:46;3.63;;;3.00;;
11568;SDS011;5840;46.894;15.542;2023-10-09T12:23:16;5.70;;;3.57;;
11568;SDS011;5840;46.894;15.542;2023-10-09T12:25:43;3.53;;;3.20;;
11568;SDS011;5840;46.894;15.542;2023-10-09T12:28:11;3.57;;;3.27;;
11568;SDS011;5840;46.894;15.542;2023-10-09T12:30:40;4.63;;;2.87;;
11568;SDS011;5840;46.894;15.542;2023-10-09T12:33:08;4.00;;;3.33;;
11568;SDS011;5840;46.894;15.542;2023-10-09T12:35:37;3.53;;;3.23;;
11568;SDS011;5840;46.894;15.542;2023-10-09T12:38:05;3.70;;;3.20;;
11568;SDS011;5840;46.894;15.542;2023-10-09T12:40:35;4.63;;;3.40;;
11568;SDS011;5840;46.894;15.542;2023-10-09T12:43:04;3.30;;;3.00;;
11568;SDS011;5840;46.894;15.542;2023-10-09T12:45:42;4.30;;;3.17;;
11568;SDS011;5840;46.894;15.542;2023-10-09T12:48:10;5.77;;;3.20;;
11568;SDS011;5840;46.894;15.542;2023-10-09T12:50:37;4.43;;;3.33;;
11568;SDS011;5840;46.894;15.542;2023-10-09T12:53:07;4.47;;;3.43;;
11568;SDS011;5840;46.894;15.542;2023-10-09T12:55:34;3.70;;;3.30;;
11568;SDS011;5840;46.894;15.542;2023-10-09T12:58:05;3.50;;;3.07;;
11568;SDS011;5840;46.894;15.542;2023-10-09T13:00:33;4.63;;;3.17;;
11568;SDS011;5840;46.894;15.542;2023-10-09T13:03:05;5.23;;;3.80;;
11568;SDS011;5840;46.894;15.542;2023-10-09T13:05:45;5.20;;;3.57;;
11568;SDS011;5840;46.894;15.542;2023-10-09T13:08:20;4.70;;;2.93;;
11568;SDS011;5840;46.894;15.542;2023-10-09T13:10:48;5.00;;;3.03;;
11568;SDS011;5840;46.894;15.542;2023-10-09T13:13:29;3.50;;;3.13;;
11568;SDS011;5840;46.894;15.542;2023-10-09T13:16:11;3.87;;;2.80;;
11568;SDS011;5840;46.894;15.542;2023-10-09T13:18:47;3.90;;;3.40;;
11568;SDS011;5840;46.894;15.542;2023-10-09T13:21:16;3.67;;;3.17;;
11568;SDS011;5840;46.894;15.542;2023-10-09T13:23:44;3.23;;;2.90;;
11568;SDS011;5840;46.894;15.542;2023-10-09T13:26:13;5.60;;;3.10;;
11568;SDS011;5840;46.894;15.542;2023-10-09T13:28:53;5.87;;;3.30;;
11568;SDS011;5840;46.894;15.542;2023-10-09T13:31:21;6.40;;;3.27;;
11568;SDS011;5840;46.894;15.542;2023-10-09T13:33:52;4.00;;;2.90;;
11568;SDS011;5840;46.894;15.542;2023-10-09T13:36:21;6.23;;;3.33;;
11568;SDS011;5840;46.894;15.542;2023-10-09T13:38:56;5.00;;;3.10;;
11568;SDS011;5840;46.894;15.542;2023-10-09T13:41:27;3.63;;;3.30;;
11568;SDS011;5840;46.894;15.542;2023-10-09T13:43:54;3.83;;;3.03;;
11568;SDS011;5840;46.894;15.542;2023-10-09T13:46:22;4.90;;;3.20;;
11568;SDS011;5840;46.894;15.542;2023-10-09T13:48:49;4.90;;;3.20;;
11568;SDS011;5840;46.894;15.542;2023-10-09T13:51:18;5.40;;;3.20;;
11568;SDS011;5840;46.894;15.542;2023-10-09T13:53:48;5.93;;;3.47;;
11568;SDS011;5840;46.894;15.542;2023-10-09T13:56:16;3.57;;;3.10;;
11568;SDS011;5840;46.894;15.542;2023-10-09T13:58:47;5.27;;;3.53;;
11568;SDS011;5840;46.894;15.542;2023-10-09T14:01:16;4.90;;;2.87;;
11568;SDS011;5840;46.894;15.542;2023-10-09T14:03:53;6.70;;;3.50;;
11568;SDS011;5840;46.894;15.542;2023-10-09T14:06:21;5.43;;;3.50;;
11568;SDS011;5840;46.894;15.542;2023-10-09T14:08:55;4.77;;;3.17;;
11568;SDS011;5840;46.894;15.542;2023-10-09T14:11:23;5.53;;;3.30;;
11568;SDS011;5840;46.894;15.542;2023-10-09T14:13:50;4.67;;;3.30;;
11568;SDS011;5840;46.894;15.542;2023-10-09T14:16:17;4.77;;;3.10;;
11568;SDS011;5840;46.894;15.542;2023-10-09T14:18:53;4.77;;;3.43;;
11568;SDS011;5840;46.894;15.542;2023-10-09T14:21:23;6.00;;;3.50;;
11568;SDS011;5840;46.894;15.542;2023-10-09T14:23:51;5.63;;;3.57;;
11568;SDS011;5840;46.894;15.542;2023-10-09T14:26:22;5.80;;;3.50;;
11568;SDS011;5840;46.894;15.542;2023-10-09T14:28:50;5.80;;;3.40;;
11568;SDS011;5840;46.894;15.542;2023-10-09T14:31:18;4.80;;;3.40;;
11568;SDS011;5840;46.894;15.542;2023-10-09T14:33:51;6.50;;;3.70;;
11568;SDS011;5840;46.894;15.542;2023-10-09T14:36:20;4.17;;;3.10;;
11568;SDS011;5840;46.894;15.542;2023-10-09T14:38:48;5.27;;;3.10;;
11568;SDS011;5840;46.894;15.542;2023-10-09T14:41:18;5.70;;;3.60;;
11568;SDS011;5840;46.894;15.542;2023-10-09T14:43:48;4.50;;;3.00;;
11568;SDS011;5840;46.894;15.542;2023-10-09T14:46:15;6.33;;;3.40;;
11568;SDS011;5840;46.894;15.542;2023-10-09T14:48:48;5.47;;;3.30;;
11568;SDS011;5840;46.894;15.542;2023-10-09T14:51:19;5.07;;;3.17;;
11568;SDS011;5840;46.894;15.542;2023-10-09T14:53:54;4.67;;;2.90;;
11568;SDS011;5840;46.894;15.542;2023-10-09T14:56:24;4.83;;;3.60;;
11568;SDS011;5840;46.894;15.542;2023-10-09T14:58:55;7.37;;;4.53;;
11568;SDS011;5840;46.894;15.542;2023-10-09T15:01:23;5.07;;;3.60;;
11568;SDS011;5840;46.894;15.542;2023-10-09T15:03:53;5.90;;;3.33;;
11568;SDS011;5840;46.894;15.542;2023-10-09T15:06:26;8.50;;;3.70;;
11568;SDS011;5840;46.894;15.542;2023-10-09T15:08:56;7.67;;;3.73;;
11568;SDS011;5840;46.894;15.542;2023-10-09T15:11:25;6.07;;;3.30;;
11568;SDS011;5840;46.894;15.542;2023-10-09T15:13:53;5.70;;;3.27;;
11568;SDS011;5840;46.894;15.542;2023-10-09T15:16:22;4.83;;;3.27;;
11568;SDS011;5840;46.894;15.542;2023-10-09T15:18:52;4.20;;;3.20;;
11568;SDS011;5840;46.894;15.542;2023-10-09T15:21:19;3.43;;;3.03;;
11568;SDS011;5840;46.894;15.542;2023-10-09T15:23:49;4.40;;;3.10;;
11568;SDS011;5840;46.894;15.542;2023-10-09T15:26:19;4.67;;;3.30;;
11568;SDS011;5840;46.894;15.542;2023-10-09T15:28:47;5.67;;;3.07;;
11568;SDS011;5840;46.894;15.542;2023-10-09T15:31:14;6.97;;;3.63;;
11568;SDS011;5840;46.894;15.542;2023-10-09T15:33:41;6.37;;;3.53;;
11568;SDS011;5840;46.894;15.542;2023-10-09T15:36:09;3.70;;;3.40;;
11568;SDS011;5840;46.894;15.542;2023-10-09T15:38:38;4.53;;;3.37;;